Time;durP1;ratioP1;P1;durP2;ratioP2;P2;SDS_P1;SDS_P2;PMS_P1;PMS_P2;Temp;Humidity;BMP_temperature;BMP_pressure;BME280_temperature;BME280_humidity;BME280_pressure;Samples;Min_cycle;Max_cycle;Signal;HPM_P1;HPM_P2
2022/07/26 00:00:11;;;;;;;3.25;2.22;;;;;;;25.79;54.48;100131.31;4947999;28;20027;-67
2022/07/26 00:02:37;;;;;;;3.83;2.17;;;;;;;25.87;54.07;100123.91;4932178;29;20279;-66
2022/07/26 00:05:03;;;;;;;2.58;2.25;;;;;;;25.89;53.84;100116.44;4949062;28;20032;-67
2022/07/26 00:07:29;;;;;;;2.80;2.60;;;;;;;25.94;53.62;100111.97;4949652;28;20042;-66
2022/07/26 00:09:54;;;;;;;2.47;2.28;;;;;;;25.97;53.21;100102.66;4949025;28;20047;-66
2022/07/26 00:12:20;;;;;;;3.70;2.33;;;;;;;25.94;53.39;100090.63;4949225;28;20035;-67
2022/07/26 00:14:45;;;;;;;2.45;2.03;;;;;;;25.95;53.22;100089.56;4950037;28;20030;-66
2022/07/26 00:17:11;;;;;;;3.30;2.30;;;;;;;26.04;53.11;100085.34;4949240;28;20035;-66
2022/07/26 00:19:36;;;;;;;3.15;1.63;;;;;;;26.10;52.82;100086.19;4948049;28;20046;-66
2022/07/26 00:24:46;;;;;;;3.13;2.03;;;;;;;26.15;52.57;100088.09;4949578;29;20102;-67
2022/07/26 00:27:12;;;;;;;3.88;2.20;;;;;;;26.18;52.93;100093.72;4948946;28;20035;-66
2022/07/26 00:29:38;;;;;;;2.58;1.58;;;;;;;26.08;53.45;100088.28;4949058;28;20119;-66
2022/07/26 00:32:03;;;;;;;2.35;2.15;;;;;;;25.99;53.89;100085.31;4947031;28;20031;-67
2022/07/26 00:34:29;;;;;;;2.72;2.45;;;;;;;25.86;54.68;100077.72;4950062;28;20402;-67
2022/07/26 00:36:54;;;;;;;3.40;2.60;;;;;;;25.90;54.38;100081.50;4949464;28;20043;-66
2022/07/26 00:39:20;;;;;;;2.80;2.45;;;;;;;25.89;54.09;100071.06;4947336;28;20031;-65
2022/07/26 00:41:45;;;;;;;1.75;1.63;;;;;;;25.81;54.14;100067.00;4949667;29;20027;-66
2022/07/26 00:44:11;;;;;;;2.72;2.50;;;;;;;25.80;54.01;100076.06;4949116;28;20032;-65
2022/07/26 00:46:41;;;;;;;4.22;2.20;;;;;;;25.78;54.48;100075.53;4949138;28;20041;-65
2022/07/26 00:49:06;;;;;;;2.90;2.47;;;;;;;25.73;54.41;100070.13;4948879;28;20035;-67
2022/07/26 00:51:32;;;;;;;2.72;2.38;;;;;;;25.75;53.98;100081.38;4949052;28;20479;-67
2022/07/26 00:53:57;;;;;;;2.72;2.38;;;;;;;25.75;53.92;100073.34;4951340;28;20392;-66
2022/07/26 00:56:24;;;;;;;4.00;2.15;;;;;;;25.77;53.69;100072.03;4953692;28;20031;-66
2022/07/26 00:58:50;;;;;;;3.15;2.85;;;;;;;25.81;53.89;100066.22;4951622;28;20035;-66
2022/07/26 01:01:15;;;;;;;1.88;1.75;;;;;;;25.73;54.25;100062.13;4951481;28;20063;-67
2022/07/26 01:03:41;;;;;;;2.85;2.35;;;;;;;25.68;54.37;100057.56;4952285;28;20102;-66
2022/07/26 01:06:07;;;;;;;3.15;2.65;;;;;;;25.66;54.63;100059.66;4951915;28;20057;-66
2022/07/26 01:08:33;;;;;;;4.18;2.22;;;;;;;25.63;54.89;100054.81;4950491;28;20049;-67
2022/07/26 01:10:58;;;;;;;3.13;2.80;;;;;;;25.50;55.32;100044.56;4950738;28;20039;-67
2022/07/26 01:13:24;;;;;;;3.20;2.55;;;;;;;25.39;55.87;100033.00;4949726;28;20077;-65
2022/07/26 01:15:49;;;;;;;2.92;2.42;;;;;;;25.34;55.62;100027.63;4952307;28;20062;-67
2022/07/26 01:18:15;;;;;;;3.42;2.53;;;;;;;25.44;55.09;100018.91;4953008;28;20433;-67
2022/07/26 01:20:42;;;;;;;4.35;2.97;;;;;;;25.52;54.75;100004.31;4951209;28;20042;-68
2022/07/26 01:23:08;;;;;;;2.95;2.65;;;;;;;25.54;54.70;99981.63;4952961;28;20086;-65
2022/07/26 01:25:36;;;;;;;3.25;2.80;;;;;;;25.61;54.45;99976.91;4951342;28;20519;-68
2022/07/26 01:28:02;;;;;;;2.53;2.33;;;;;;;25.63;54.21;99968.63;4951659;28;20035;-65
2022/07/26 01:30:28;;;;;;;2.85;2.58;;;;;;;25.65;54.06;99982.56;4951668;28;20081;-68
2022/07/26 01:32:54;;;;;;;3.03;2.78;;;;;;;25.61;53.90;99981.44;4951934;28;20066;-67
2022/07/26 01:35:20;;;;;;;3.25;2.80;;;;;;;25.61;53.89;99976.91;4951205;29;20035;-65
2022/07/26 01:37:45;;;;;;;3.58;2.50;;;;;;;25.69;53.82;99981.78;4952711;28;20031;-67
2022/07/26 01:40:11;;;;;;;3.10;2.50;;;;;;;25.76;54.06;99998.41;4952235;28;20094;-64
2022/07/26 01:42:39;;;;;;;2.95;2.10;;;;;;;25.72;54.43;99999.16;4951456;28;20050;-67
2022/07/26 01:45:06;;;;;;;2.58;2.38;;;;;;;25.68;54.75;100001.53;4950065;28;20042;-65
2022/07/26 01:47:32;;;;;;;2.60;2.20;;;;;;;25.65;54.98;100003.91;4952129;28;20027;-66
2022/07/26 01:49:58;;;;;;;2.65;2.45;;;;;;;25.54;55.27;100004.84;4952224;28;20487;-64
2022/07/26 01:52:24;;;;;;;2.80;2.42;;;;;;;25.41;55.15;99990.09;4951051;28;20213;-66
2022/07/26 01:54:49;;;;;;;3.10;2.80;;;;;;;25.28;55.64;99975.28;4950860;28;20118;-66
2022/07/26 01:57:15;;;;;;;3.22;2.30;;;;;;;25.21;56.08;99987.22;4952235;28;20031;-64
2022/07/26 01:59:40;;;;;;;2.65;2.08;;;;;;;25.17;56.12;99991.44;4951237;28;20031;-66
2022/07/26 02:02:06;;;;;;;2.22;1.83;;;;;;;25.28;55.96;99999.28;4950059;28;20131;-65
2022/07/26 02:05:16;;;;;;;2.42;2.00;;;;;;;25.32;55.96;100008.41;4948956;28;20035;-65
2022/07/26 02:07:17;;;;;;;3.00;2.25;;;;;;;25.13;56.75;100036.44;4946659;28;20043;-66
2022/07/26 02:09:42;;;;;;;2.75;1.75;;;;;;;24.83;57.38;100044.88;4950973;28;20035;-66
2022/07/26 02:12:08;;;;;;;3.17;2.05;;;;;;;24.83;57.14;100026.25;4950336;28;20031;-66
2022/07/26 02:14:34;;;;;;;2.55;2.28;;;;;;;24.89;56.89;100017.25;4950640;28;20059;-67
2022/07/26 02:16:59;;;;;;;2.33;2.13;;;;;;;25.04;56.76;100014.00;4951720;28;20458;-67
2022/07/26 02:19:26;;;;;;;2.35;2.13;;;;;;;25.10;56.53;100010.28;4951657;28;20050;-65
2022/07/26 02:21:52;;;;;;;2.50;2.30;;;;;;;25.07;57.03;100011.59;4949801;28;20117;-67
2022/07/26 02:24:17;;;;;;;3.08;2.85;;;;;;;24.99;56.98;100020.06;4948363;28;20121;-66
2022/07/26 02:26:43;;;;;;;2.90;2.30;;;;;;;24.97;57.47;100002.72;4951814;28;20070;-66
2022/07/26 02:29:08;;;;;;;2.97;2.40;;;;;;;24.92;57.38;99989.31;4949548;28;20027;-67
2022/07/26 02:31:34;;;;;;;2.30;2.10;;;;;;;24.85;57.23;99975.38;4951391;28;20661;-65
2022/07/26 02:33:59;;;;;;;3.00;2.67;;;;;;;24.85;57.38;99968.19;4932688;29;20027;-64
2022/07/26 02:36:25;;;;;;;2.10;1.90;;;;;;;24.92;57.49;99962.66;4949418;28;20081;-66
2022/07/26 02:38:50;;;;;;;2.50;2.30;;;;;;;24.89;57.50;99973.81;4950403;28;20346;-66
2022/07/26 02:41:16;;;;;;;2.45;2.10;;;;;;;24.98;56.92;99977.69;4951270;28;20039;-65
2022/07/26 02:43:42;;;;;;;2.80;2.30;;;;;;;25.07;57.34;99984.16;4951308;28;20085;-65
2022/07/26 02:46:07;;;;;;;2.72;2.08;;;;;;;25.08;57.55;99977.75;4948851;28;20038;-66
2022/07/26 02:48:33;;;;;;;3.63;2.70;;;;;;;25.09;57.58;99976.69;4951106;28;20054;-67
2022/07/26 02:50:58;;;;;;;2.65;2.00;;;;;;;25.04;57.54;99966.81;4949231;28;20105;-65
2022/07/26 02:53:24;;;;;;;3.15;2.63;;;;;;;25.07;58.07;99965.47;4950359;28;20062;-65
2022/07/26 02:55:49;;;;;;;2.25;2.05;;;;;;;25.05;58.23;99970.25;4949761;28;20396;-66
2022/07/26 02:58:15;;;;;;;2.45;2.15;;;;;;;24.95;58.61;99983.47;4952276;28;20383;-66
2022/07/26 03:00:40;;;;;;;2.60;2.40;;;;;;;24.88;58.68;99983.66;4951274;28;20062;-67
2022/07/26 03:03:06;;;;;;;2.15;1.98;;;;;;;24.87;58.84;99982.06;4949679;28;20480;-65
2022/07/26 03:05:31;;;;;;;2.58;2.38;;;;;;;24.88;59.20;99977.53;4949757;28;20071;-66
2022/07/26 03:07:57;;;;;;;2.30;2.10;;;;;;;24.86;59.36;99980.44;4950254;28;20123;-66
2022/07/26 03:10:23;;;;;;;3.10;2.38;;;;;;;24.80;59.65;99976.91;4950763;28;20038;-67
2022/07/26 03:12:48;;;;;;;2.60;2.22;;;;;;;24.76;60.48;99981.13;4950094;28;20157;-66
2022/07/26 03:15:14;;;;;;;3.03;2.72;;;;;;;24.64;60.85;99985.78;4950628;28;20451;-66
2022/07/26 03:17:40;;;;;;;3.30;2.63;;;;;;;24.54;61.03;99985.69;4948650;28;20027;-64
2022/07/26 03:22:42;;;;;;;4.43;2.83;;;;;;;24.41;61.28;99988.69;5116891;23;20286;-83
2022/07/26 03:25:08;;;;;;;3.35;2.92;;;;;;;24.33;61.61;99986.47;5024038;28;20112;-82
2022/07/26 03:27:34;;;;;;;3.95;2.70;;;;;;;24.23;62.03;99995.06;5023994;28;20437;-83
2022/07/26 03:29:59;;;;;;;3.75;3.45;;;;;;;24.24;62.36;99995.88;5008701;28;20034;-83
2022/07/26 03:32:25;;;;;;;3.47;3.17;;;;;;;24.23;62.12;99996.94;5006078;28;20369;-83
2022/07/26 03:34:51;;;;;;;3.10;2.63;;;;;;;24.15;61.51;99995.50;5007559;28;20030;-83
2022/07/26 03:37:19;;;;;;;2.50;2.25;;;;;;;24.22;61.41;99992.66;5007202;28;20386;-83
2022/07/26 03:39:44;;;;;;;2.88;2.58;;;;;;;24.32;61.36;100008.81;4990883;28;20481;-83
2022/07/26 03:42:10;;;;;;;4.55;3.38;;;;;;;24.27;61.85;100008.72;5006969;28;20041;-84
2022/07/26 03:44:35;;;;;;;4.72;3.30;;;;;;;24.17;62.51;100004.03;5008535;28;20453;-83
2022/07/26 03:47:01;;;;;;;4.03;2.80;;;;;;;24.12;62.69;99999.44;5008439;28;20029;-83
2022/07/26 03:49:27;;;;;;;3.65;3.13;;;;;;;24.02;63.21;99994.00;5008749;28;20044;-83
2022/07/26 03:51:54;;;;;;;3.10;2.80;;;;;;;23.99;62.74;99999.81;4988412;28;20125;-83
2022/07/26 03:54:20;;;;;;;3.25;2.83;;;;;;;24.02;61.99;100001.97;4990789;28;20030;-83
2022/07/26 03:56:46;;;;;;;3.17;2.50;;;;;;;24.09;61.41;99999.97;5006401;28;20033;-82
2022/07/26 03:59:11;;;;;;;2.88;2.60;;;;;;;24.11;61.12;99999.69;5007570;28;20033;-82
2022/07/26 04:01:40;;;;;;;3.20;2.35;;;;;;;24.24;60.80;100003.88;5006973;28;20034;-82
2022/07/26 04:04:08;;;;;;;3.50;3.20;;;;;;;24.26;61.13;100009.78;5007333;28;20508;-82
2022/07/26 04:06:34;;;;;;;3.33;3.03;;;;;;;24.24;61.32;100004.66;5008394;28;20022;-83
2022/07/26 04:09:00;;;;;;;3.67;3.38;;;;;;;24.21;60.78;100004.34;5008488;28;20058;-82
2022/07/26 04:11:26;;;;;;;4.70;3.28;;;;;;;24.21;60.68;100005.16;5007171;28;20525;-82
2022/07/26 04:13:51;;;;;;;5.15;2.80;;;;;;;24.09;60.98;99997.31;4990131;28;20216;-83
2022/07/26 04:16:17;;;;;;;3.78;2.83;;;;;;;24.13;60.99;100003.72;5008402;28;20485;-82
2022/07/26 04:18:42;;;;;;;3.05;2.67;;;;;;;24.16;60.73;100013.88;4990808;28;20030;-82
2022/07/26 04:21:08;;;;;;;2.88;2.55;;;;;;;24.12;60.18;100002.09;4986931;28;20073;-81
2022/07/26 04:23:34;;;;;;;3.15;2.85;;;;;;;24.21;60.02;100012.34;5004938;28;20053;-81
2022/07/26 04:25:59;;;;;;;3.83;3.10;;;;;;;24.29;59.84;100026.06;5008342;28;20037;-81
2022/07/26 04:28:27;;;;;;;3.40;3.10;;;;;;;24.33;60.30;100019.22;5009658;28;20106;-82
2022/07/26 04:31:16;;;;;;;3.10;2.67;;;;;;;24.37;60.56;100024.84;5010104;28;20056;-82
2022/07/26 04:33:40;;;;;;;4.30;2.75;;;;;;;24.37;60.47;100015.00;5011338;28;20121;-83
2022/07/26 04:36:06;;;;;;;2.72;2.50;;;;;;;24.31;60.72;100020.50;5010626;28;20109;-82
2022/07/26 04:38:31;;;;;;;3.40;2.60;;;;;;;24.24;61.28;100017.19;4994127;28;20030;-82
2022/07/26 04:40:57;;;;;;;5.65;3.30;;;;;;;24.31;60.97;100012.50;4992114;28;20037;-82
2022/07/26 04:43:23;;;;;;;3.30;2.33;;;;;;;24.30;61.14;100013.56;5011692;28;20460;-82
2022/07/26 04:45:49;;;;;;;3.40;2.75;;;;;;;24.36;60.85;100012.59;5010543;28;20034;-83
2022/07/26 04:48:15;;;;;;;3.30;2.58;;;;;;;24.47;60.09;100009.81;4994073;28;20033;-83
2022/07/26 04:50:42;;;;;;;2.65;2.45;;;;;;;24.69;59.54;100006.34;4991304;28;20515;-82
2022/07/26 04:53:09;;;;;;;2.63;2.22;;;;;;;24.87;58.95;100010.56;5012151;28;20058;-84
2022/07/26 04:55:39;;;;;;;3.20;2.38;;;;;;;25.04;58.99;100009.47;4992430;28;20470;-83
2022/07/26 04:58:05;;;;;;;2.88;2.55;;;;;;;25.27;58.39;100007.53;5011413;28;20033;-84
2022/07/26 05:01:06;;;;;;;3.20;2.90;;;;;;;25.51;57.69;100010.72;5010067;28;20478;-83
2022/07/26 05:03:39;;;;;;;3.47;2.90;;;;;;;25.69;57.40;100005.00;4927722;29;20899;-83
2022/07/26 05:06:46;;;;;;;2.92;2.70;;;;;;;25.79;57.07;100002.41;4918189;29;20054;-83
2022/07/26 05:09:11;;;;;;;3.67;3.03;;;;;;;25.95;56.73;100004.16;4930775;29;20047;-82
2022/07/26 05:11:37;;;;;;;2.85;2.65;;;;;;;25.76;56.94;99994.91;4929850;29;20052;-82
2022/07/26 05:14:02;;;;;;;4.05;2.83;;;;;;;25.81;56.67;99996.84;4930825;29;20031;-82
2022/07/26 05:16:28;;;;;;;3.28;3.03;;;;;;;25.90;56.39;99989.97;4930688;29;20063;-83
2022/07/26 05:19:19;;;;;;;2.80;2.60;;;;;;;25.97;55.49;99991.34;4930912;29;20067;-82
2022/07/26 05:21:45;;;;;;;3.38;2.65;;;;;;;26.16;55.29;99985.56;4928759;29;20537;-83
2022/07/26 05:24:10;;;;;;;3.30;2.50;;;;;;;26.42;54.57;99987.34;4914853;29;20043;-83
2022/07/26 05:26:36;;;;;;;3.30;3.00;;;;;;;26.56;53.89;99988.47;4931104;29;20059;-82
2022/07/26 05:29:01;;;;;;;3.20;2.90;;;;;;;26.54;53.71;99987.13;4930395;29;20075;-82
2022/07/26 05:31:27;;;;;;;3.55;3.03;;;;;;;26.48;53.65;99986.28;4930563;29;20038;-82
2022/07/26 05:33:54;;;;;;;2.55;2.35;;;;;;;26.48;53.57;99996.97;4971562;28;20045;-82
2022/07/26 05:36:20;;;;;;;3.53;2.58;;;;;;;26.49;53.43;99995.91;5009236;28;20567;-82
2022/07/26 05:38:48;;;;;;;2.58;2.38;;;;;;;26.45;53.17;99992.19;4992580;28;20492;-83
2022/07/26 05:41:13;;;;;;;2.55;2.33;;;;;;;26.38;53.24;99986.25;4992866;28;20143;-83
2022/07/26 05:43:39;;;;;;;2.80;2.53;;;;;;;26.33;53.21;99994.25;5009222;28;20037;-83
2022/07/26 05:46:04;;;;;;;3.95;2.35;;;;;;;26.37;53.30;99987.31;5009274;28;20076;-82
2022/07/26 05:48:30;;;;;;;3.63;2.17;;;;;;;26.38;53.33;99986.25;4992645;28;20037;-82
2022/07/26 05:50:55;;;;;;;1.45;1.35;;;;;;;26.34;53.60;99985.19;5008538;28;20044;-83
2022/07/26 05:53:21;;;;;;;2.20;2.00;;;;;;;26.26;53.63;99990.97;4991444;28;20038;-82
2022/07/26 05:55:47;;;;;;;2.97;1.42;;;;;;;26.25;54.28;99984.03;5010427;28;20108;-81
2022/07/26 05:58:12;;;;;;;2.50;2.30;;;;;;;26.11;54.65;99979.13;5010006;28;20037;-82
2022/07/26 06:00:41;;;;;;;2.75;1.75;;;;;;;26.03;55.23;99974.28;5008981;28;20040;-82
2022/07/26 06:03:24;;;;;;;1.83;1.70;;;;;;;25.99;55.31;99965.22;5006263;28;20084;-81
2022/07/26 06:05:55;;;;;;;2.15;1.50;;;;;;;26.01;55.54;99959.59;5007823;28;20037;-82
2022/07/26 06:08:24;;;;;;;2.17;1.58;;;;;;;26.04;55.02;99954.53;4989527;28;20485;-82
2022/07/26 06:10:51;;;;;;;1.58;1.30;;;;;;;26.12;55.18;99971.94;5010025;28;20034;-81
2022/07/26 06:13:19;;;;;;;2.33;1.45;;;;;;;26.16;54.96;99977.56;4992461;28;20080;-82
2022/07/26 06:15:45;;;;;;;2.03;1.58;;;;;;;26.16;54.66;99991.72;4990098;28;20045;-81
2022/07/26 06:18:12;;;;;;;4.15;1.75;;;;;;;26.16;55.56;99988.25;5006767;28;20418;-81
2022/07/26 06:20:41;;;;;;;2.80;1.23;;;;;;;26.07;56.38;99979.91;5006949;28;20038;-82
2022/07/26 06:23:07;;;;;;;1.60;1.27;;;;;;;26.02;56.67;99977.22;5009367;28;20429;-82
2022/07/26 06:25:33;;;;;;;3.30;1.30;;;;;;;25.98;57.43;99976.13;5009555;28;20030;-82
2022/07/26 06:28:03;;;;;;;1.50;1.08;;;;;;;25.92;57.99;99985.16;4989613;28;20115;-82
2022/07/26 06:30:29;;;;;;;1.95;1.42;;;;;;;25.84;58.00;99986.44;4989785;28;20038;-82
2022/07/26 06:32:55;;;;;;;2.10;1.10;;;;;;;25.81;58.44;99978.94;4998228;28;20034;-81
2022/07/26 06:35:20;;;;;;;3.00;1.52;;;;;;;25.76;58.75;99986.91;4991741;28;20033;-81
2022/07/26 06:37:46;;;;;;;1.52;1.40;;;;;;;25.75;58.50;99993.31;4985399;28;20069;-82
2022/07/26 06:40:11;;;;;;;2.22;1.95;;;;;;;25.72;58.40;100004.50;5003059;28;20030;-81
2022/07/26 06:42:37;;;;;;;1.50;1.38;;;;;;;25.70;58.97;100019.94;5003798;28;20040;-82
2022/07/26 06:45:04;;;;;;;3.20;1.90;;;;;;;25.67;59.48;100039.13;4987932;28;20030;-82
2022/07/26 06:47:30;;;;;;;2.92;1.67;;;;;;;25.59;60.61;100052.91;4984440;28;20029;-82
2022/07/26 06:49:56;;;;;;;2.90;2.15;;;;;;;25.49;60.72;100061.63;5003671;28;20029;-82
2022/07/26 06:52:21;;;;;;;2.72;2.13;;;;;;;25.39;61.05;100073.00;5001230;28;20084;-82
2022/07/26 06:55:08;;;;;;;2.70;2.50;;;;;;;25.29;60.91;100086.22;5013428;28;20017;-82
2022/07/26 06:57:33;;;;;;;3.15;2.78;;;;;;;25.24;60.75;100091.50;5034997;28;20085;-82
2022/07/26 06:59:59;;;;;;;3.15;2.85;;;;;;;25.19;61.03;100117.28;5033589;28;20034;-83
2022/07/26 07:02:25;;;;;;;4.05;3.42;;;;;;;25.18;61.01;100140.47;4988580;28;20061;-83
2022/07/26 07:04:50;;;;;;;4.95;3.95;;;;;;;25.18;60.96;100159.13;4983445;28;20566;-82
2022/07/26 07:07:33;;;;;;;5.05;3.28;;;;;;;25.13;61.97;100159.88;5003156;28;20033;-83
2022/07/26 07:10:01;;;;;;;4.28;3.85;;;;;;;24.97;61.74;100152.75;4991187;28;20041;-82
2022/07/26 07:12:26;;;;;;;4.72;3.70;;;;;;;24.84;62.68;100152.25;5007880;28;20033;-82
2022/07/26 07:14:52;;;;;;;4.18;3.78;;;;;;;24.69;63.74;100128.88;4990514;28;20014;-85
2022/07/26 07:17:27;;;;;;;5.40;4.10;;;;;;;24.48;65.14;100120.63;4987165;28;20034;-83
2022/07/26 07:19:55;;;;;;;5.85;4.50;;;;;;;24.42;66.22;100118.91;4989928;28;20088;-80
2022/07/26 07:22:47;;;;;;;4.57;3.92;;;;;;;24.43;66.33;100133.03;5002510;28;20461;-84
2022/07/26 07:25:21;;;;;;;4.45;3.40;;;;;;;24.52;66.19;100131.59;4998326;28;20500;-80
2022/07/26 07:27:47;;;;;;;3.58;3.10;;;;;;;24.54;65.26;100134.81;5008724;28;20030;-82
2022/07/26 07:30:13;;;;;;;6.32;3.40;;;;;;;24.56;64.97;100129.25;4989407;28;20026;-82
2022/07/26 07:32:38;;;;;;;4.70;3.50;;;;;;;24.59;65.61;100134.84;5008509;28;20029;-83
2022/07/26 07:35:04;;;;;;;3.83;3.50;;;;;;;24.59;65.26;100145.50;4988428;28;20033;-81
2022/07/26 07:37:35;;;;;;;3.90;3.58;;;;;;;24.60;65.48;100160.44;5004920;28;20198;-82
2022/07/26 07:40:04;;;;;;;4.88;4.03;;;;;;;24.65;65.47;100175.69;5008807;28;20080;-83
2022/07/26 07:42:30;;;;;;;3.97;3.58;;;;;;;24.71;65.56;100178.19;4989026;28;20533;-82
2022/07/26 07:44:55;;;;;;;4.25;3.85;;;;;;;24.63;65.86;100175.13;5008440;28;20022;-80
2022/07/26 07:47:23;;;;;;;4.10;3.38;;;;;;;24.56;65.97;100183.31;5003289;28;20121;-81
2022/07/26 07:49:49;;;;;;;4.22;3.47;;;;;;;24.53;65.89;100189.13;5007005;28;20132;-83
2022/07/26 07:52:14;;;;;;;4.45;4.05;;;;;;;24.54;65.76;100180.09;5005569;28;20549;-82
2022/07/26 07:54:40;;;;;;;4.18;3.53;;;;;;;24.54;65.76;100174.75;5006392;28;20110;-83
2022/07/26 07:57:25;;;;;;;4.43;3.55;;;;;;;24.55;67.16;100176.38;5006744;28;20037;-80
2022/07/26 07:59:55;;;;;;;4.18;3.53;;;;;;;24.42;66.63;100177.50;4988922;28;20034;-80
2022/07/26 08:02:21;;;;;;;4.32;3.40;;;;;;;24.30;67.13;100190.06;4990829;28;20125;-82
2022/07/26 08:04:46;;;;;;;6.30;3.58;;;;;;;24.12;68.52;100193.72;4998146;28;20121;-80
2022/07/26 08:07:12;;;;;;;3.97;3.45;;;;;;;24.04;68.47;100180.84;5009510;28;20065;-80
2022/07/26 08:09:40;;;;;;;3.83;3.50;;;;;;;24.08;68.80;100167.84;4994350;28;20431;-80
2022/07/26 08:12:09;;;;;;;4.18;3.83;;;;;;;24.09;68.93;100167.63;5010796;28;20034;-80
2022/07/26 08:14:43;;;;;;;4.20;3.80;;;;;;;24.09;69.09;100166.81;4993281;28;20033;-81
2022/07/26 08:17:08;;;;;;;4.80;4.03;;;;;;;24.07;68.75;100164.38;4991429;28;20330;-82
2022/07/26 08:19:33;;;;;;;4.25;3.30;;;;;;;24.06;69.34;100148.66;4994022;28;22970;-81
2022/07/26 08:22:08;;;;;;;6.40;4.80;;;;;;;24.07;69.28;100143.09;5011207;28;20030;-82
2022/07/26 08:24:44;;;;;;;;;;;;;;;;;;;;;
2022/07/26 08:27:19;;;;;;;4.35;3.72;;;;;;;24.00;70.04;100144.28;5011076;28;20037;-80
2022/07/26 08:30:03;;;;;;;4.28;3.08;;;;;;;24.12;70.62;100155.66;4989145;28;20073;-80
2022/07/26 08:32:32;;;;;;;4.47;3.78;;;;;;;24.16;68.87;100154.94;5010806;28;20062;-81
2022/07/26 08:35:00;;;;;;;5.10;3.53;;;;;;;24.17;69.15;100169.84;5008085;28;20387;-81
2022/07/26 08:37:25;;;;;;;4.25;3.40;;;;;;;24.27;68.95;100173.78;5002525;28;20084;-80
2022/07/26 08:39:51;;;;;;;4.18;3.05;;;;;;;24.28;68.73;100176.19;4990950;28;20038;-80
2022/07/26 08:42:19;;;;;;;4.80;3.25;;;;;;;24.30;68.77;100167.97;4992047;28;20132;-81
2022/07/26 08:44:46;;;;;;;4.30;3.28;;;;;;;24.29;68.49;100158.38;5010249;28;20030;-80
2022/07/26 08:47:13;;;;;;;3.78;3.05;;;;;;;24.32;68.05;100169.34;4993072;28;20049;-80
2022/07/26 08:49:39;;;;;;;3.42;2.50;;;;;;;24.37;67.92;100190.72;5008950;28;20532;-82
2022/07/26 08:52:05;;;;;;;3.95;2.80;;;;;;;24.41;68.34;100180.41;5001303;28;20041;-80
2022/07/26 08:54:31;;;;;;;3.63;2.58;;;;;;;24.46;68.05;100193.78;4992925;28;20052;-81
2022/07/26 08:56:58;;;;;;;3.80;2.80;;;;;;;24.51;67.87;100196.53;5009638;28;20033;-80
2022/07/26 08:59:34;;;;;;;2.75;2.33;;;;;;;24.58;67.86;100199.81;5011071;28;20026;-79
2022/07/26 09:02:04;;;;;;;2.63;2.20;;;;;;;24.57;67.59;100200.09;5010617;28;20029;-82
2022/07/26 09:04:34;;;;;;;3.10;2.75;;;;;;;24.65;67.53;100205.00;5009297;28;20022;-82
2022/07/26 09:07:07;;;;;;;3.40;2.08;;;;;;;24.63;67.33;100207.91;5010607;28;20030;-80
2022/07/26 09:09:35;;;;;;;2.67;2.45;;;;;;;24.64;67.12;100193.53;5009280;28;20034;-80
2022/07/26 09:12:14;;;;;;;2.50;2.13;;;;;;;24.54;67.18;100188.06;5010909;28;20040;-82
2022/07/26 09:14:40;;;;;;;3.95;2.08;;;;;;;24.55;67.00;100192.34;5008759;28;20445;-82
2022/07/26 09:17:06;;;;;;;2.78;1.88;;;;;;;24.61;67.10;100186.03;5010514;28;20033;-84
2022/07/26 09:19:31;;;;;;;2.65;2.10;;;;;;;24.72;66.76;100192.31;5004172;28;20085;-82
2022/07/26 09:22:08;;;;;;;2.08;1.85;;;;;;;24.69;66.89;100196.28;5010689;28;20088;-81
2022/07/26 09:24:47;;;;;;;3.70;1.63;;;;;;;24.73;66.56;100208.06;5010073;28;20486;-83
2022/07/26 09:27:15;;;;;;;5.35;1.75;;;;;;;24.79;66.12;100209.75;5005431;28;20033;-84
2022/07/26 09:29:50;;;;;;;2.70;1.85;;;;;;;24.75;66.45;100213.94;5010321;28;20042;-82
2022/07/26 09:32:24;;;;;;;2.47;1.70;;;;;;;24.83;66.42;100226.06;5004604;28;20038;-81
2022/07/26 09:34:56;;;;;;;1.98;1.60;;;;;;;24.78;66.30;100229.44;5018492;28;20044;-83
2022/07/26 09:37:45;;;;;;;2.10;1.90;;;;;;;24.84;66.07;100233.00;5012183;28;20037;-82
2022/07/26 09:40:20;;;;;;;2.45;1.40;;;;;;;25.00;65.38;100237.53;5006503;28;20949;-82
2022/07/26 09:43:03;;;;;;;3.13;1.38;;;;;;;25.16;65.05;100219.06;5004516;28;20073;-81
2022/07/26 09:45:31;;;;;;;1.30;0.85;;;;;;;25.24;64.43;100216.78;5011954;28;20034;-83
2022/07/26 09:47:57;;;;;;;1.50;1.27;;;;;;;25.28;63.77;100225.91;5010976;28;20033;-82
2022/07/26 09:50:25;;;;;;;2.30;0.88;;;;;;;25.26;63.68;100222.69;5004982;28;20041;-81
2022/07/26 09:53:03;;;;;;;2.28;0.55;;;;;;;25.36;62.57;100220.16;5007266;28;20026;-82
2022/07/26 09:55:30;;;;;;;2.15;0.68;;;;;;;25.33;62.43;100220.66;4990129;28;20042;-83
2022/07/26 09:57:58;;;;;;;1.00;0.70;;;;;;;25.34;61.90;100216.94;5009637;28;20029;-83
2022/07/26 10:00:25;;;;;;;1.15;0.80;;;;;;;25.37;61.53;100212.97;5008302;28;20378;-80
2022/07/26 10:02:52;;;;;;;1.38;0.80;;;;;;;25.58;60.95;100211.34;5006992;28;20080;-80
2022/07/26 10:05:23;;;;;;;0.80;0.68;;;;;;;25.59;60.84;100210.28;5007864;28;20045;-82
2022/07/26 10:07:52;;;;;;;0.80;0.40;;;;;;;25.73;60.51;100209.69;5009095;28;20623;-82
2022/07/26 10:10:32;;;;;;;2.00;0.50;;;;;;;25.96;59.46;100203.25;5003163;28;20061;-82
2022/07/26 10:13:01;;;;;;;1.40;0.57;;;;;;;26.15;59.11;100214.38;4990968;28;20066;-82
2022/07/26 10:15:47;;;;;;;0.70;0.50;;;;;;;26.25;58.26;100219.00;5008033;28;20025;-80
2022/07/26 10:18:39;;;;;;;0.90;0.50;;;;;;;26.31;57.13;100232.19;5006625;28;20044;-82
2022/07/26 10:21:30;;;;;;;0.90;0.50;;;;;;;26.31;57.13;100232.19;5007082;28;20464;-80
2022/07/26 10:24:01;;;;;;;1.00;0.40;;;;;;;26.41;57.43;100239.47;4983904;28;20401;-82
2022/07/26 10:26:35;;;;;;;0.55;0.30;;;;;;;26.46;56.85;100228.84;5005689;28;20026;-82
2022/07/26 10:29:36;;;;;;;1.02;0.43;;;;;;;26.42;55.65;100239.22;5002984;28;20073;-81
2022/07/26 10:32:02;;;;;;;0.80;0.40;;;;;;;26.34;57.03;100242.34;5012624;28;20042;-81
2022/07/26 10:34:33;;;;;;;0.75;0.30;;;;;;;26.49;55.53;100244.34;5005372;28;20469;-83
2022/07/26 10:37:01;;;;;;;0.63;0.25;;;;;;;26.61;55.70;100249.50;5008638;28;20077;-81
2022/07/26 10:39:27;;;;;;;0.90;0.22;;;;;;;26.68;55.59;100245.56;5006771;28;20037;-83
2022/07/26 10:42:09;;;;;;;1.30;0.40;;;;;;;26.70;53.57;100237.28;5005632;28;20033;-82
2022/07/26 10:44:44;;;;;;;0.55;0.30;;;;;;;26.73;54.24;100239.47;5007274;28;20501;-82
2022/07/26 10:47:35;;;;;;;0.80;0.30;;;;;;;26.91;53.04;100232.91;5007250;28;20041;-81
2022/07/26 10:50:01;;;;;;;0.50;0.20;;;;;;;27.17;53.59;100232.00;5007154;28;20038;-81
2022/07/26 10:52:31;;;;;;;0.70;0.50;;;;;;;27.47;52.84;100230.53;5007917;28;20084;-81
2022/07/26 10:54:59;;;;;;;0.50;0.28;;;;;;;27.52;52.88;100227.88;5006337;28;20091;-81
2022/07/26 10:57:27;;;;;;;0.50;0.30;;;;;;;27.56;53.08;100234.31;5005868;28;20385;-81
2022/07/26 10:59:56;;;;;;;1.70;0.28;;;;;;;27.71;52.57;100223.69;5004939;28;20048;-81
2022/07/26 11:02:25;;;;;;;0.40;0.20;;;;;;;28.03;51.81;100224.28;5008575;28;20295;-83
2022/07/26 11:05:02;;;;;;;0.60;0.30;;;;;;;28.31;50.28;100215.00;4989383;28;20501;-83
2022/07/26 11:07:28;;;;;;;0.57;0.30;;;;;;;28.34;50.98;100216.34;5008692;28;20034;-81
2022/07/26 11:09:57;;;;;;;0.55;0.20;;;;;;;28.39;50.73;100208.28;5008750;28;20037;-81
2022/07/26 11:12:23;;;;;;;0.80;0.30;;;;;;;28.45;50.85;100203.72;5008820;28;20029;-81
2022/07/26 11:15:11;;;;;;;0.50;0.20;;;;;;;28.59;50.26;100202.13;5003501;28;20034;-81
2022/07/26 11:17:36;;;;;;;0.60;0.30;;;;;;;28.46;50.64;100206.13;5006426;28;20065;-82
2022/07/26 11:20:03;;;;;;;0.73;0.30;;;;;;;28.40;50.05;100201.84;5004686;28;20074;-83
2022/07/26 11:22:32;;;;;;;1.77;0.20;;;;;;;28.42;49.80;100205.06;5004940;28;20037;-81
2022/07/26 11:24:58;;;;;;;1.25;0.40;;;;;;;28.39;49.65;100202.91;5006361;28;20204;-82
2022/07/26 11:27:23;;;;;;;0.47;0.20;;;;;;;28.44;49.41;100189.53;5036957;28;20102;-82
2022/07/26 11:29:49;;;;;;;0.40;0.20;;;;;;;28.51;48.49;100190.06;5031639;28;20065;-83
2022/07/26 11:32:18;;;;;;;0.50;0.20;;;;;;;28.56;48.65;100187.38;5018558;28;20061;-81
2022/07/26 11:34:44;;;;;;;0.30;0.20;;;;;;;28.56;47.84;100176.66;4976583;28;20049;-81
2022/07/26 11:37:09;;;;;;;0.60;0.30;;;;;;;28.69;47.76;100169.94;5003606;28;20485;-82
2022/07/26 11:39:35;;;;;;;0.93;0.20;;;;;;;28.67;47.06;100178.25;5008303;28;20447;-82